Heer Park, New York
Current Conditions -  °F | °C
As of 4:53 AM on Friday 31 Oct 2014 (Local Time) from KFRG Reporting Station
Broken Clouds Broken Clouds  
Wind Chill: 41°   Ceiling: 4900
Heat Index: 45°   Visibility: 10mi
Dew Point: 36°   Wind: 7mph
Humidity: 71%   Direction: 30°NNE
Pressure: 29.99"   Gusts: NA
Location:  40.6894°N, 73.3745°W
Report Text: KFRG 310853Z AUTO 03006KT 10SM BKN049 07/02 A2999 RMK AO2 SLP157 T00720022 58007
Loading
Personal Weather Stations






























Interactive Weather Map
Tropical Storm Tracking
New forecast layout! Learn more

10-Day Weather Forecast

Advertisements
Track Severe Weather on mobile